sensor_id;sensor_type;location;lat;lon;timestamp;P1;durP1;ratioP1;P2;durP2;ratioP2
70920;SDS011;58572;48.110;19.838;2024-03-02T00:00:50;19.33;;;12.27;;
70920;SDS011;58572;48.110;19.838;2024-03-02T00:03:17;24.77;;;12.35;;
70920;SDS011;58572;48.110;19.838;2024-03-02T00:05:49;21.83;;;13.32;;
70920;SDS011;58572;48.110;19.838;2024-03-02T00:08:19;18.33;;;11.90;;
70920;SDS011;58572;48.110;19.838;2024-03-02T00:10:50;21.70;;;12.90;;
70920;SDS011;58572;48.110;19.838;2024-03-02T00:13:20;26.25;;;13.35;;
70920;SDS011;58572;48.110;19.838;2024-03-02T00:15:51;20.95;;;12.98;;
70920;SDS011;58572;48.110;19.838;2024-03-02T00:18:20;27.55;;;13.07;;
70920;SDS011;58572;48.110;19.838;2024-03-02T00:20:53;23.27;;;13.25;;
70920;SDS011;58572;48.110;19.838;2024-03-02T00:23:21;31.45;;;14.68;;
70920;SDS011;58572;48.110;19.838;2024-03-02T00:25:50;28.67;;;14.15;;
70920;SDS011;58572;48.110;19.838;2024-03-02T00:28:20;22.38;;;13.38;;
70920;SDS011;58572;48.110;19.838;2024-03-02T00:30:57;23.05;;;13.98;;
70920;SDS011;58572;48.110;19.838;2024-03-02T00:33:29;25.55;;;14.55;;
70920;SDS011;58572;48.110;19.838;2024-03-02T00:35:59;24.13;;;14.75;;
70920;SDS011;58572;48.110;19.838;2024-03-02T00:38:28;24.17;;;13.45;;
70920;SDS011;58572;48.110;19.838;2024-03-02T00:40:55;24.60;;;13.23;;
70920;SDS011;58572;48.110;19.838;2024-03-02T00:46:12;23.80;;;14.43;;
70920;SDS011;58572;48.110;19.838;2024-03-02T00:48:42;25.02;;;14.13;;
70920;SDS011;58572;48.110;19.838;2024-03-02T00:51:24;20.73;;;13.20;;
70920;SDS011;58572;48.110;19.838;2024-03-02T00:53:53;22.85;;;14.25;;
70920;SDS011;58572;48.110;19.838;2024-03-02T00:56:22;26.83;;;14.07;;
70920;SDS011;58572;48.110;19.838;2024-03-02T01:01:16;22.60;;;13.13;;
70920;SDS011;58572;48.110;19.838;2024-03-02T01:03:44;24.45;;;14.57;;
70920;SDS011;58572;48.110;19.838;2024-03-02T01:06:12;20.92;;;13.20;;
70920;SDS011;58572;48.110;19.838;2024-03-02T01:08:40;21.17;;;12.90;;
70920;SDS011;58572;48.110;19.838;2024-03-02T01:11:07;25.42;;;14.38;;
70920;SDS011;58572;48.110;19.838;2024-03-02T01:13:34;24.73;;;13.27;;
70920;SDS011;58572;48.110;19.838;2024-03-02T01:16:01;24.77;;;13.75;;
70920;SDS011;58572;48.110;19.838;2024-03-02T01:20:56;22.23;;;12.32;;
70920;SDS011;58572;48.110;19.838;2024-03-02T01:23:23;23.77;;;12.93;;
70920;SDS011;58572;48.110;19.838;2024-03-02T01:25:51;23.05;;;14.13;;
70920;SDS011;58572;48.110;19.838;2024-03-02T01:28:18;19.85;;;10.45;;
70920;SDS011;58572;48.110;19.838;2024-03-02T01:30:47;22.65;;;12.98;;
70920;SDS011;58572;48.110;19.838;2024-03-02T01:33:14;24.00;;;13.13;;
70920;SDS011;58572;48.110;19.838;2024-03-02T01:35:41;30.85;;;14.38;;
70920;SDS011;58572;48.110;19.838;2024-03-02T01:38:08;22.58;;;12.60;;
70920;SDS011;58572;48.110;19.838;2024-03-02T01:40:35;22.73;;;12.60;;
70920;SDS011;58572;48.110;19.838;2024-03-02T01:43:04;21.33;;;12.90;;
70920;SDS011;58572;48.110;19.838;2024-03-02T01:45:32;25.65;;;13.68;;
70920;SDS011;58572;48.110;19.838;2024-03-02T01:48:00;21.30;;;10.48;;
70920;SDS011;58572;48.110;19.838;2024-03-02T01:50:28;20.00;;;12.38;;
70920;SDS011;58572;48.110;19.838;2024-03-02T01:52:55;20.80;;;12.65;;
70920;SDS011;58572;48.110;19.838;2024-03-02T01:55:22;19.60;;;12.15;;
70920;SDS011;58572;48.110;19.838;2024-03-02T02:00:19;22.70;;;12.15;;
70920;SDS011;58572;48.110;19.838;2024-03-02T02:02:47;23.15;;;12.55;;
70920;SDS011;58572;48.110;19.838;2024-03-02T02:05:15;22.17;;;11.15;;
70920;SDS011;58572;48.110;19.838;2024-03-02T02:07:42;22.25;;;12.77;;
70920;SDS011;58572;48.110;19.838;2024-03-02T02:10:09;18.55;;;12.20;;
70920;SDS011;58572;48.110;19.838;2024-03-02T02:15:04;17.98;;;11.18;;
70920;SDS011;58572;48.110;19.838;2024-03-02T02:17:49;19.63;;;12.38;;
70920;SDS011;58572;48.110;19.838;2024-03-02T02:20:16;21.10;;;11.60;;
70920;SDS011;58572;48.110;19.838;2024-03-02T02:25:27;22.85;;;12.13;;
70920;SDS011;58572;48.110;19.838;2024-03-02T02:27:55;21.92;;;11.63;;
70920;SDS011;58572;48.110;19.838;2024-03-02T02:30:23;18.77;;;11.43;;
70920;SDS011;58572;48.110;19.838;2024-03-02T02:32:51;20.45;;;11.45;;
70920;SDS011;58572;48.110;19.838;2024-03-02T02:35:18;24.00;;;10.57;;
70920;SDS011;58572;48.110;19.838;2024-03-02T02:37:45;21.48;;;12.10;;
70920;SDS011;58572;48.110;19.838;2024-03-02T02:40:14;24.63;;;12.20;;
70920;SDS011;58572;48.110;19.838;2024-03-02T02:42:41;22.00;;;12.70;;
70920;SDS011;58572;48.110;19.838;2024-03-02T02:45:08;20.92;;;12.65;;
70920;SDS011;58572;48.110;19.838;2024-03-02T02:47:36;19.70;;;11.18;;
70920;SDS011;58572;48.110;19.838;2024-03-02T02:50:03;19.38;;;11.90;;
70920;SDS011;58572;48.110;19.838;2024-03-02T02:52:31;19.90;;;11.82;;
70920;SDS011;58572;48.110;19.838;2024-03-02T02:55:01;24.50;;;12.27;;
70920;SDS011;58572;48.110;19.838;2024-03-02T02:57:31;23.95;;;11.70;;
70920;SDS011;58572;48.110;19.838;2024-03-02T03:00:01;16.88;;;11.15;;
70920;SDS011;58572;48.110;19.838;2024-03-02T03:02:35;24.13;;;12.45;;
70920;SDS011;58572;48.110;19.838;2024-03-02T03:05:03;19.13;;;11.40;;
70920;SDS011;58572;48.110;19.838;2024-03-02T03:07:31;21.17;;;12.13;;
70920;SDS011;58572;48.110;19.838;2024-03-02T03:09:59;21.02;;;12.25;;
70920;SDS011;58572;48.110;19.838;2024-03-02T03:12:26;19.08;;;10.63;;
70920;SDS011;58572;48.110;19.838;2024-03-02T03:14:54;17.17;;;11.10;;
70920;SDS011;58572;48.110;19.838;2024-03-02T03:17:21;19.17;;;11.80;;
70920;SDS011;58572;48.110;19.838;2024-03-02T03:19:48;19.90;;;11.48;;
70920;SDS011;58572;48.110;19.838;2024-03-02T03:22:15;23.75;;;12.15;;
70920;SDS011;58572;48.110;19.838;2024-03-02T03:24:42;23.27;;;12.25;;
70920;SDS011;58572;48.110;19.838;2024-03-02T03:27:09;20.67;;;12.07;;
70920;SDS011;58572;48.110;19.838;2024-03-02T03:29:36;25.73;;;12.05;;
70920;SDS011;58572;48.110;19.838;2024-03-02T03:32:05;18.85;;;12.15;;
70920;SDS011;58572;48.110;19.838;2024-03-02T03:34:33;22.75;;;10.88;;
70920;SDS011;58572;48.110;19.838;2024-03-02T03:37:00;19.88;;;10.60;;
70920;SDS011;58572;48.110;19.838;2024-03-02T03:39:27;18.75;;;11.15;;
70920;SDS011;58572;48.110;19.838;2024-03-02T03:41:54;21.10;;;11.70;;
70920;SDS011;58572;48.110;19.838;2024-03-02T03:44:21;18.25;;;12.60;;
70920;SDS011;58572;48.110;19.838;2024-03-02T03:46:48;25.20;;;11.70;;
70920;SDS011;58572;48.110;19.838;2024-03-02T03:49:16;20.08;;;11.77;;
70920;SDS011;58572;48.110;19.838;2024-03-02T03:51:43;21.13;;;11.20;;
70920;SDS011;58572;48.110;19.838;2024-03-02T03:54:10;21.50;;;12.30;;
70920;SDS011;58572;48.110;19.838;2024-03-02T03:56:37;22.45;;;13.27;;
70920;SDS011;58572;48.110;19.838;2024-03-02T03:59:04;20.15;;;11.40;;
70920;SDS011;58572;48.110;19.838;2024-03-02T04:01:31;19.67;;;11.77;;
70920;SDS011;58572;48.110;19.838;2024-03-02T04:03:58;23.20;;;13.25;;
70920;SDS011;58572;48.110;19.838;2024-03-02T04:06:28;21.17;;;11.65;;
70920;SDS011;58572;48.110;19.838;2024-03-02T04:08:55;23.65;;;12.05;;
70920;SDS011;58572;48.110;19.838;2024-03-02T04:11:22;22.50;;;11.77;;
70920;SDS011;58572;48.110;19.838;2024-03-02T04:13:49;21.27;;;11.52;;
70920;SDS011;58572;48.110;19.838;2024-03-02T04:16:16;20.33;;;11.98;;
70920;SDS011;58572;48.110;19.838;2024-03-02T04:18:43;20.88;;;12.32;;
70920;SDS011;58572;48.110;19.838;2024-03-02T04:21:10;17.42;;;11.10;;
70920;SDS011;58572;48.110;19.838;2024-03-02T04:23:39;22.40;;;11.73;;
70920;SDS011;58572;48.110;19.838;2024-03-02T04:26:06;22.35;;;12.15;;
70920;SDS011;58572;48.110;19.838;2024-03-02T04:28:32;23.30;;;13.05;;
70920;SDS011;58572;48.110;19.838;2024-03-02T04:30:59;20.10;;;12.93;;
70920;SDS011;58572;48.110;19.838;2024-03-02T04:33:26;22.85;;;12.50;;
70920;SDS011;58572;48.110;19.838;2024-03-02T04:35:53;24.42;;;12.93;;
70920;SDS011;58572;48.110;19.838;2024-03-02T04:38:20;21.58;;;12.35;;
70920;SDS011;58572;48.110;19.838;2024-03-02T04:40:48;20.88;;;12.25;;
70920;SDS011;58572;48.110;19.838;2024-03-02T04:43:15;28.42;;;13.10;;
70920;SDS011;58572;48.110;19.838;2024-03-02T04:45:42;20.63;;;12.75;;
70920;SDS011;58572;48.110;19.838;2024-03-02T04:48:09;22.90;;;13.48;;
70920;SDS011;58572;48.110;19.838;2024-03-02T04:50:36;24.05;;;14.02;;
70920;SDS011;58572;48.110;19.838;2024-03-02T04:53:03;26.58;;;14.80;;
70920;SDS011;58572;48.110;19.838;2024-03-02T04:55:30;25.45;;;13.90;;
70920;SDS011;58572;48.110;19.838;2024-03-02T04:58:12;20.02;;;13.30;;
70920;SDS011;58572;48.110;19.838;2024-03-02T05:00:39;24.23;;;12.85;;
70920;SDS011;58572;48.110;19.838;2024-03-02T05:03:07;20.48;;;14.20;;
70920;SDS011;58572;48.110;19.838;2024-03-02T05:05:34;23.90;;;12.90;;
70920;SDS011;58572;48.110;19.838;2024-03-02T05:08:02;20.10;;;12.50;;
70920;SDS011;58572;48.110;19.838;2024-03-02T05:10:29;25.48;;;13.60;;
70920;SDS011;58572;48.110;19.838;2024-03-02T05:12:56;22.88;;;13.48;;
70920;SDS011;58572;48.110;19.838;2024-03-02T05:15:25;21.85;;;11.93;;
70920;SDS011;58572;48.110;19.838;2024-03-02T05:17:51;19.88;;;12.63;;
70920;SDS011;58572;48.110;19.838;2024-03-02T05:20:18;21.88;;;14.52;;
70920;SDS011;58572;48.110;19.838;2024-03-02T05:22:45;26.88;;;14.27;;
70920;SDS011;58572;48.110;19.838;2024-03-02T05:25:12;24.17;;;13.15;;
70920;SDS011;58572;48.110;19.838;2024-03-02T05:27:39;20.83;;;13.57;;
70920;SDS011;58572;48.110;19.838;2024-03-02T05:30:07;23.50;;;13.65;;
70920;SDS011;58572;48.110;19.838;2024-03-02T05:32:36;20.30;;;13.30;;
70920;SDS011;58572;48.110;19.838;2024-03-02T05:35:03;20.52;;;13.23;;
70920;SDS011;58572;48.110;19.838;2024-03-02T05:39:57;20.20;;;11.88;;
70920;SDS011;58572;48.110;19.838;2024-03-02T05:42:24;24.27;;;13.18;;
70920;SDS011;58572;48.110;19.838;2024-03-02T05:44:52;27.92;;;14.77;;
70920;SDS011;58572;48.110;19.838;2024-03-02T05:47:19;24.73;;;15.93;;
70920;SDS011;58572;48.110;19.838;2024-03-02T05:49:47;24.63;;;14.70;;
70920;SDS011;58572;48.110;19.838;2024-03-02T05:52:14;24.92;;;14.70;;
70920;SDS011;58572;48.110;19.838;2024-03-02T05:54:41;24.20;;;14.15;;
70920;SDS011;58572;48.110;19.838;2024-03-02T05:57:08;23.50;;;12.75;;
70920;SDS011;58572;48.110;19.838;2024-03-02T06:00:01;27.05;;;15.73;;
70920;SDS011;58572;48.110;19.838;2024-03-02T06:02:33;23.42;;;13.05;;
70920;SDS011;58572;48.110;19.838;2024-03-02T06:05:01;25.00;;;14.70;;
70920;SDS011;58572;48.110;19.838;2024-03-02T06:07:29;26.33;;;14.70;;
70920;SDS011;58572;48.110;19.838;2024-03-02T06:09:56;22.65;;;15.02;;
70920;SDS011;58572;48.110;19.838;2024-03-02T06:12:23;26.13;;;14.98;;
70920;SDS011;58572;48.110;19.838;2024-03-02T06:14:50;28.10;;;15.45;;
70920;SDS011;58572;48.110;19.838;2024-03-02T06:17:17;27.67;;;15.82;;
70920;SDS011;58572;48.110;19.838;2024-03-02T06:19:44;24.63;;;15.75;;
70920;SDS011;58572;48.110;19.838;2024-03-02T06:22:13;24.85;;;15.27;;
70920;SDS011;58572;48.110;19.838;2024-03-02T06:24:39;25.58;;;12.57;;
70920;SDS011;58572;48.110;19.838;2024-03-02T06:27:07;23.83;;;15.23;;
70920;SDS011;58572;48.110;19.838;2024-03-02T06:29:34;24.38;;;13.25;;
70920;SDS011;58572;48.110;19.838;2024-03-02T06:32:01;23.42;;;14.57;;
70920;SDS011;58572;48.110;19.838;2024-03-02T06:34:28;25.92;;;15.43;;
70920;SDS011;58572;48.110;19.838;2024-03-02T06:36:54;30.27;;;16.50;;
70920;SDS011;58572;48.110;19.838;2024-03-02T06:39:23;25.60;;;15.68;;
70920;SDS011;58572;48.110;19.838;2024-03-02T06:41:51;27.20;;;16.73;;
70920;SDS011;58572;48.110;19.838;2024-03-02T06:44:17;31.45;;;16.77;;
70920;SDS011;58572;48.110;19.838;2024-03-02T06:46:44;29.05;;;17.08;;
70920;SDS011;58572;48.110;19.838;2024-03-02T06:49:11;29.70;;;16.80;;
70920;SDS011;58572;48.110;19.838;2024-03-02T06:51:38;26.55;;;16.50;;
70920;SDS011;58572;48.110;19.838;2024-03-02T06:54:07;28.90;;;16.23;;
70920;SDS011;58572;48.110;19.838;2024-03-02T06:56:35;29.20;;;16.80;;
70920;SDS011;58572;48.110;19.838;2024-03-02T06:59:03;30.02;;;17.70;;
70920;SDS011;58572;48.110;19.838;2024-03-02T07:01:30;29.15;;;16.33;;
70920;SDS011;58572;48.110;19.838;2024-03-02T07:03:57;32.35;;;16.90;;
70920;SDS011;58572;48.110;19.838;2024-03-02T07:06:24;28.05;;;17.00;;
70920;SDS011;58572;48.110;19.838;2024-03-02T07:08:51;28.02;;;18.13;;
70920;SDS011;58572;48.110;19.838;2024-03-02T07:11:18;26.35;;;16.65;;
70920;SDS011;58572;48.110;19.838;2024-03-02T07:13:46;30.10;;;18.20;;
70920;SDS011;58572;48.110;19.838;2024-03-02T07:16:13;29.15;;;17.65;;
70920;SDS011;58572;48.110;19.838;2024-03-02T07:18:53;29.00;;;16.42;;
70920;SDS011;58572;48.110;19.838;2024-03-02T07:21:21;30.33;;;18.15;;
70920;SDS011;58572;48.110;19.838;2024-03-02T07:23:48;28.67;;;16.98;;
70920;SDS011;58572;48.110;19.838;2024-03-02T07:26:16;28.92;;;17.42;;
70920;SDS011;58572;48.110;19.838;2024-03-02T07:28:46;30.05;;;18.30;;
70920;SDS011;58572;48.110;19.838;2024-03-02T07:31:14;29.60;;;17.48;;
70920;SDS011;58572;48.110;19.838;2024-03-02T07:33:41;33.63;;;17.55;;
70920;SDS011;58572;48.110;19.838;2024-03-02T07:36:09;30.48;;;17.50;;
70920;SDS011;58572;48.110;19.838;2024-03-02T07:38:36;27.88;;;16.23;;
70920;SDS011;58572;48.110;19.838;2024-03-02T07:41:03;31.10;;;17.17;;
70920;SDS011;58572;48.110;19.838;2024-03-02T07:43:31;26.50;;;15.45;;
70920;SDS011;58572;48.110;19.838;2024-03-02T07:45:59;24.70;;;14.70;;
70920;SDS011;58572;48.110;19.838;2024-03-02T07:48:28;28.10;;;16.70;;
70920;SDS011;58572;48.110;19.838;2024-03-02T07:53:22;23.08;;;14.35;;
70920;SDS011;58572;48.110;19.838;2024-03-02T07:55:49;28.17;;;15.27;;
70920;SDS011;58572;48.110;19.838;2024-03-02T07:58:16;27.65;;;16.88;;
70920;SDS011;58572;48.110;19.838;2024-03-02T08:00:44;25.20;;;15.98;;
70920;SDS011;58572;48.110;19.838;2024-03-02T08:03:13;27.55;;;17.70;;
70920;SDS011;58572;48.110;19.838;2024-03-02T08:05:40;28.85;;;18.58;;
70920;SDS011;58572;48.110;19.838;2024-03-02T08:08:07;26.58;;;17.90;;
70920;SDS011;58572;48.110;19.838;2024-03-02T08:10:34;31.60;;;17.55;;
70920;SDS011;58572;48.110;19.838;2024-03-02T08:13:01;28.50;;;16.45;;
70920;SDS011;58572;48.110;19.838;2024-03-02T08:15:28;29.60;;;17.08;;
70920;SDS011;58572;48.110;19.838;2024-03-02T08:17:55;28.15;;;16.48;;
70920;SDS011;58572;48.110;19.838;2024-03-02T08:20:23;31.83;;;18.38;;
70920;SDS011;58572;48.110;19.838;2024-03-02T08:22:50;39.20;;;19.95;;
70920;SDS011;58572;48.110;19.838;2024-03-02T08:25:20;30.80;;;17.95;;
70920;SDS011;58572;48.110;19.838;2024-03-02T08:27:47;29.10;;;18.23;;
70920;SDS011;58572;48.110;19.838;2024-03-02T08:30:14;30.35;;;18.27;;
70920;SDS011;58572;48.110;19.838;2024-03-02T08:32:41;30.15;;;17.30;;
70920;SDS011;58572;48.110;19.838;2024-03-02T08:35:08;31.30;;;16.92;;
70920;SDS011;58572;48.110;19.838;2024-03-02T08:37:36;29.60;;;18.40;;
70920;SDS011;58572;48.110;19.838;2024-03-02T08:40:06;31.08;;;17.88;;
70920;SDS011;58572;48.110;19.838;2024-03-02T08:42:33;31.75;;;17.48;;
70920;SDS011;58572;48.110;19.838;2024-03-02T08:45:01;30.02;;;18.05;;
70920;SDS011;58572;48.110;19.838;2024-03-02T08:47:28;29.10;;;17.83;;
70920;SDS011;58572;48.110;19.838;2024-03-02T08:49:54;32.05;;;18.75;;
70920;SDS011;58572;48.110;19.838;2024-03-02T08:52:21;27.25;;;17.13;;
70920;SDS011;58572;48.110;19.838;2024-03-02T08:54:50;26.35;;;17.52;;
70920;SDS011;58572;48.110;19.838;2024-03-02T08:57:17;27.85;;;16.02;;
70920;SDS011;58572;48.110;19.838;2024-03-02T08:59:44;29.05;;;16.88;;
70920;SDS011;58572;48.110;19.838;2024-03-02T09:02:11;29.60;;;18.85;;
70920;SDS011;58572;48.110;19.838;2024-03-02T09:04:38;29.17;;;17.35;;
70920;SDS011;58572;48.110;19.838;2024-03-02T09:07:05;32.55;;;15.88;;
70920;SDS011;58572;48.110;19.838;2024-03-02T09:09:33;35.95;;;20.23;;
70920;SDS011;58572;48.110;19.838;2024-03-02T09:12:01;35.10;;;19.88;;
70920;SDS011;58572;48.110;19.838;2024-03-02T09:14:28;32.40;;;20.10;;
70920;SDS011;58572;48.110;19.838;2024-03-02T09:16:55;31.50;;;19.20;;
70920;SDS011;58572;48.110;19.838;2024-03-02T09:19:22;33.85;;;19.02;;
70920;SDS011;58572;48.110;19.838;2024-03-02T09:21:49;31.00;;;19.27;;
70920;SDS011;58572;48.110;19.838;2024-03-02T09:24:16;38.40;;;20.45;;
70920;SDS011;58572;48.110;19.838;2024-03-02T09:26:43;31.80;;;19.13;;
70920;SDS011;58572;48.110;19.838;2024-03-02T09:29:11;31.80;;;18.63;;
70920;SDS011;58572;48.110;19.838;2024-03-02T09:31:39;30.02;;;19.27;;
70920;SDS011;58572;48.110;19.838;2024-03-02T09:36:33;30.55;;;17.63;;
70920;SDS011;58572;48.110;19.838;2024-03-02T09:39:00;29.95;;;20.75;;
70920;SDS011;58572;48.110;19.838;2024-03-02T09:41:29;34.20;;;19.75;;
70920;SDS011;58572;48.110;19.838;2024-03-02T09:43:56;33.20;;;18.63;;
70920;SDS011;58572;48.110;19.838;2024-03-02T09:46:24;34.90;;;19.23;;
70920;SDS011;58572;48.110;19.838;2024-03-02T09:48:52;32.30;;;18.33;;
70920;SDS011;58572;48.110;19.838;2024-03-02T09:51:19;31.35;;;19.13;;
70920;SDS011;58572;48.110;19.838;2024-03-02T09:53:46;29.40;;;18.33;;
70920;SDS011;58572;48.110;19.838;2024-03-02T09:56:14;29.70;;;16.98;;
70920;SDS011;58572;48.110;19.838;2024-03-02T09:58:43;26.70;;;16.15;;
70920;SDS011;58572;48.110;19.838;2024-03-02T10:01:10;23.75;;;15.60;;
70920;SDS011;58572;48.110;19.838;2024-03-02T10:03:39;20.63;;;12.73;;
70920;SDS011;58572;48.110;19.838;2024-03-02T10:06:18;17.45;;;11.73;;
70920;SDS011;58572;48.110;19.838;2024-03-02T10:08:45;18.08;;;11.48;;
70920;SDS011;58572;48.110;19.838;2024-03-02T10:11:23;17.98;;;10.88;;
70920;SDS011;58572;48.110;19.838;2024-03-02T10:14:03;18.20;;;13.35;;
70920;SDS011;58572;48.110;19.838;2024-03-02T10:16:33;16.10;;;10.27;;
70920;SDS011;58572;48.110;19.838;2024-03-02T10:19:16;16.35;;;11.38;;
70920;SDS011;58572;48.110;19.838;2024-03-02T10:21:44;12.73;;;8.93;;
70920;SDS011;58572;48.110;19.838;2024-03-02T10:24:11;12.38;;;9.15;;
70920;SDS011;58572;48.110;19.838;2024-03-02T10:26:38;15.43;;;10.15;;
70920;SDS011;58572;48.110;19.838;2024-03-02T10:29:07;15.02;;;10.68;;
70920;SDS011;58572;48.110;19.838;2024-03-02T10:31:36;12.02;;;9.13;;
70920;SDS011;58572;48.110;19.838;2024-03-02T10:34:04;11.55;;;8.57;;
70920;SDS011;58572;48.110;19.838;2024-03-02T10:36:33;11.50;;;8.63;;
70920;SDS011;58572;48.110;19.838;2024-03-02T10:39:01;10.07;;;7.43;;
70920;SDS011;58572;48.110;19.838;2024-03-02T10:41:30;9.90;;;7.43;;
70920;SDS011;58572;48.110;19.838;2024-03-02T10:43:59;13.25;;;9.07;;
70920;SDS011;58572;48.110;19.838;2024-03-02T10:46:28;13.10;;;8.95;;
70920;SDS011;58572;48.110;19.838;2024-03-02T10:48:56;11.07;;;8.57;;
70920;SDS011;58572;48.110;19.838;2024-03-02T10:51:24;10.88;;;8.10;;
70920;SDS011;58572;48.110;19.838;2024-03-02T10:53:54;12.45;;;8.68;;
70920;SDS011;58572;48.110;19.838;2024-03-02T10:56:22;15.88;;;13.68;;
70920;SDS011;58572;48.110;19.838;2024-03-02T10:58:55;9.75;;;7.75;;
70920;SDS011;58572;48.110;19.838;2024-03-02T11:01:28;11.23;;;9.00;;
70920;SDS011;58572;48.110;19.838;2024-03-02T11:03:57;12.07;;;8.82;;
70920;SDS011;58572;48.110;19.838;2024-03-02T11:06:26;9.82;;;8.50;;
70920;SDS011;58572;48.110;19.838;2024-03-02T11:08:58;9.32;;;7.28;;
70920;SDS011;58572;48.110;19.838;2024-03-02T11:11:35;26.30;;;13.30;;
70920;SDS011;58572;48.110;19.838;2024-03-02T11:14:04;44.25;;;23.80;;
70920;SDS011;58572;48.110;19.838;2024-03-02T11:16:35;19.27;;;12.57;;
70920;SDS011;58572;48.110;19.838;2024-03-02T11:19:04;12.18;;;8.88;;
70920;SDS011;58572;48.110;19.838;2024-03-02T11:21:33;22.50;;;16.30;;
70920;SDS011;58572;48.110;19.838;2024-03-02T11:26:52;10.57;;;6.88;;
70920;SDS011;58572;48.110;19.838;2024-03-02T11:32:15;9.25;;;6.90;;
70920;SDS011;58572;48.110;19.838;2024-03-02T11:34:45;7.70;;;5.53;;
70920;SDS011;58572;48.110;19.838;2024-03-02T11:37:13;7.65;;;5.70;;
70920;SDS011;58572;48.110;19.838;2024-03-02T11:39:42;7.53;;;5.45;;
70920;SDS011;58572;48.110;19.838;2024-03-02T11:42:11;9.32;;;7.30;;
70920;SDS011;58572;48.110;19.838;2024-03-02T11:44:42;7.60;;;5.75;;
70920;SDS011;58572;48.110;19.838;2024-03-02T11:47:11;16.52;;;11.35;;
70920;SDS011;58572;48.110;19.838;2024-03-02T11:49:41;8.10;;;5.93;;
70920;SDS011;58572;48.110;19.838;2024-03-02T11:52:10;8.98;;;6.72;;
70920;SDS011;58572;48.110;19.838;2024-03-02T11:54:40;13.68;;;9.07;;
70920;SDS011;58572;48.110;19.838;2024-03-02T11:57:13;7.82;;;6.10;;
70920;SDS011;58572;48.110;19.838;2024-03-02T11:59:41;8.95;;;6.68;;
70920;SDS011;58572;48.110;19.838;2024-03-02T12:02:14;8.50;;;6.28;;
70920;SDS011;58572;48.110;19.838;2024-03-02T12:04:43;5.88;;;4.18;;
70920;SDS011;58572;48.110;19.838;2024-03-02T12:07:10;6.00;;;4.70;;
70920;SDS011;58572;48.110;19.838;2024-03-02T12:09:38;6.45;;;5.30;;
70920;SDS011;58572;48.110;19.838;2024-03-02T12:12:06;6.10;;;5.05;;
70920;SDS011;58572;48.110;19.838;2024-03-02T12:14:35;6.38;;;4.05;;
70920;SDS011;58572;48.110;19.838;2024-03-02T12:17:04;8.88;;;5.22;;
70920;SDS011;58572;48.110;19.838;2024-03-02T12:19:32;12.88;;;8.35;;
70920;SDS011;58572;48.110;19.838;2024-03-02T12:24:27;19.27;;;13.65;;
70920;SDS011;58572;48.110;19.838;2024-03-02T12:26:56;11.13;;;8.10;;
70920;SDS011;58572;48.110;19.838;2024-03-02T12:29:25;10.73;;;7.60;;
70920;SDS011;58572;48.110;19.838;2024-03-02T12:31:54;9.02;;;7.45;;
70920;SDS011;58572;48.110;19.838;2024-03-02T12:34:21;9.95;;;8.18;;
70920;SDS011;58572;48.110;19.838;2024-03-02T12:36:49;8.77;;;7.15;;
70920;SDS011;58572;48.110;19.838;2024-03-02T12:39:18;7.45;;;5.65;;
70920;SDS011;58572;48.110;19.838;2024-03-02T12:41:48;8.77;;;5.82;;
70920;SDS011;58572;48.110;19.838;2024-03-02T12:44:16;7.85;;;5.78;;
70920;SDS011;58572;48.110;19.838;2024-03-02T12:46:43;6.35;;;5.75;;
70920;SDS011;58572;48.110;19.838;2024-03-02T12:49:12;8.50;;;5.95;;
70920;SDS011;58572;48.110;19.838;2024-03-02T12:51:41;6.82;;;5.90;;
70920;SDS011;58572;48.110;19.838;2024-03-02T12:54:09;6.40;;;4.03;;
70920;SDS011;58572;48.110;19.838;2024-03-02T12:59:03;6.05;;;4.93;;
70920;SDS011;58572;48.110;19.838;2024-03-02T13:01:31;10.77;;;8.15;;
70920;SDS011;58572;48.110;19.838;2024-03-02T13:03:58;6.97;;;5.13;;
70920;SDS011;58572;48.110;19.838;2024-03-02T13:06:27;10.25;;;7.55;;
70920;SDS011;58572;48.110;19.838;2024-03-02T13:08:54;19.70;;;16.73;;
70920;SDS011;58572;48.110;19.838;2024-03-02T13:11:22;13.80;;;10.52;;
70920;SDS011;58572;48.110;19.838;2024-03-02T13:13:50;9.80;;;8.10;;
70920;SDS011;58572;48.110;19.838;2024-03-02T13:16:17;12.68;;;11.25;;
70920;SDS011;58572;48.110;19.838;2024-03-02T13:18:45;9.00;;;8.05;;
70920;SDS011;58572;48.110;19.838;2024-03-02T13:21:12;8.77;;;6.90;;
70920;SDS011;58572;48.110;19.838;2024-03-02T13:23:41;7.55;;;6.18;;
70920;SDS011;58572;48.110;19.838;2024-03-02T13:26:08;9.63;;;7.38;;
70920;SDS011;58572;48.110;19.838;2024-03-02T13:28:38;8.40;;;7.53;;
70920;SDS011;58572;48.110;19.838;2024-03-02T13:33:32;13.02;;;9.00;;
70920;SDS011;58572;48.110;19.838;2024-03-02T13:35:59;8.15;;;6.80;;
70920;SDS011;58572;48.110;19.838;2024-03-02T13:38:26;12.70;;;9.07;;
70920;SDS011;58572;48.110;19.838;2024-03-02T13:40:55;11.32;;;7.45;;
70920;SDS011;58572;48.110;19.838;2024-03-02T13:43:22;7.28;;;6.32;;
70920;SDS011;58572;48.110;19.838;2024-03-02T13:48:18;7.50;;;5.38;;
70920;SDS011;58572;48.110;19.838;2024-03-02T13:50:46;6.47;;;5.88;;
70920;SDS011;58572;48.110;19.838;2024-03-02T13:53:13;6.65;;;5.65;;
70920;SDS011;58572;48.110;19.838;2024-03-02T13:55:40;7.75;;;5.03;;
70920;SDS011;58572;48.110;19.838;2024-03-02T13:58:09;7.15;;;5.05;;
70920;SDS011;58572;48.110;19.838;2024-03-02T14:00:37;7.97;;;5.53;;
70920;SDS011;58572;48.110;19.838;2024-03-02T14:05:32;6.43;;;5.22;;
70920;SDS011;58572;48.110;19.838;2024-03-02T14:08:00;6.38;;;5.00;;
70920;SDS011;58572;48.110;19.838;2024-03-02T14:10:27;5.55;;;4.75;;
70920;SDS011;58572;48.110;19.838;2024-03-02T14:12:54;6.60;;;5.25;;
70920;SDS011;58572;48.110;19.838;2024-03-02T14:15:23;7.22;;;5.22;;
70920;SDS011;58572;48.110;19.838;2024-03-02T14:17:50;8.40;;;5.28;;
70920;SDS011;58572;48.110;19.838;2024-03-02T14:20:17;6.95;;;5.60;;
70920;SDS011;58572;48.110;19.838;2024-03-02T14:22:47;5.82;;;5.10;;
70920;SDS011;58572;48.110;19.838;2024-03-02T14:25:15;5.38;;;4.13;;
70920;SDS011;58572;48.110;19.838;2024-03-02T14:27:44;9.05;;;6.72;;
70920;SDS011;58572;48.110;19.838;2024-03-02T14:30:12;6.60;;;5.53;;
70920;SDS011;58572;48.110;19.838;2024-03-02T14:32:41;9.93;;;7.68;;
70920;SDS011;58572;48.110;19.838;2024-03-02T14:35:08;7.20;;;6.32;;
70920;SDS011;58572;48.110;19.838;2024-03-02T14:37:36;6.05;;;5.45;;
70920;SDS011;58572;48.110;19.838;2024-03-02T14:40:04;7.35;;;5.88;;
70920;SDS011;58572;48.110;19.838;2024-03-02T14:42:34;8.35;;;6.00;;
70920;SDS011;58572;48.110;19.838;2024-03-02T14:45:01;29.38;;;27.23;;
70920;SDS011;58572;48.110;19.838;2024-03-02T14:47:31;8.73;;;7.53;;
70920;SDS011;58572;48.110;19.838;2024-03-02T14:50:00;8.88;;;7.47;;
70920;SDS011;58572;48.110;19.838;2024-03-02T14:52:28;7.97;;;6.47;;
70920;SDS011;58572;48.110;19.838;2024-03-02T14:54:55;10.27;;;7.93;;
70920;SDS011;58572;48.110;19.838;2024-03-02T14:57:22;9.82;;;7.68;;
70920;SDS011;58572;48.110;19.838;2024-03-02T14:59:49;9.93;;;7.47;;